createdAt,value
2018-06-20T00:02:13.363Z,18.60
2018-06-20T00:04:42.252Z,18.60
2018-06-20T00:07:11.386Z,18.57
2018-06-20T00:09:40.489Z,18.64
2018-06-20T00:12:09.777Z,18.64
2018-06-20T00:14:38.655Z,18.68
2018-06-20T00:17:07.772Z,18.67
2018-06-20T00:19:36.791Z,18.52
2018-06-20T00:22:05.727Z,18.58
2018-06-20T00:24:34.961Z,18.60
2018-06-20T00:27:03.889Z,18.67
2018-06-20T00:29:32.819Z,18.55
2018-06-20T00:32:01.895Z,18.43
2018-06-20T00:34:30.841Z,18.40
2018-06-20T00:37:01.126Z,18.51
2018-06-20T00:39:30.183Z,18.45
2018-06-20T00:41:59.149Z,18.45
2018-06-20T00:44:28.064Z,18.42
2018-06-20T00:46:57.007Z,18.38
2018-06-20T00:49:25.925Z,18.44
2018-06-20T00:51:54.959Z,18.43
2018-06-20T00:54:23.879Z,18.57
2018-06-20T00:56:53.080Z,18.51
2018-06-20T00:59:21.960Z,18.53
2018-06-20T01:01:50.893Z,18.49
2018-06-20T01:04:19.821Z,18.42
2018-06-20T01:06:48.713Z,18.38
2018-06-20T01:09:17.604Z,18.33
2018-06-20T01:11:46.790Z,18.41
2018-06-20T01:14:15.583Z,18.40
2018-06-20T01:16:44.549Z,18.39
2018-06-20T01:19:13.507Z,18.37
2018-06-20T01:21:42.402Z,18.29
2018-06-20T01:24:11.356Z,18.31
2018-06-20T01:26:40.309Z,18.28
2018-06-20T01:29:15.615Z,18.19
2018-06-20T01:31:44.621Z,18.21
2018-06-20T01:34:14.201Z,18.11
2018-06-20T01:36:43.084Z,18.03
2018-06-20T01:39:12.411Z,18.07
2018-06-20T01:41:41.287Z,18.13
2018-06-20T01:44:10.491Z,18.16
2018-06-20T01:46:39.423Z,18.13
2018-06-20T01:49:08.744Z,18.06
2018-06-20T01:51:37.673Z,18.02
2018-06-20T01:54:07.192Z,17.94
2018-06-20T01:56:36.153Z,17.96
2018-06-20T01:59:05.113Z,17.91
2018-06-20T02:01:34.015Z,17.88
2018-06-20T02:04:03.012Z,17.82
2018-06-20T02:06:33.694Z,17.70
2018-06-20T02:09:02.623Z,17.68
2018-06-20T02:11:31.571Z,17.69
2018-06-20T02:14:00.573Z,17.73
2018-06-20T02:16:29.495Z,17.73
2018-06-20T02:18:58.431Z,17.78
2018-06-20T02:21:27.431Z,17.65
2018-06-20T02:23:56.435Z,17.64
2018-06-20T02:26:25.619Z,17.60
2018-06-20T02:28:54.643Z,17.58
2018-06-20T02:31:23.549Z,17.65
2018-06-20T02:33:53.080Z,17.62
2018-06-20T02:36:27.248Z,17.62
2018-06-20T02:38:56.220Z,17.61
2018-06-20T02:41:25.252Z,17.63
2018-06-20T02:43:54.140Z,17.75
2018-06-20T02:46:23.555Z,17.76
2018-06-20T02:48:52.580Z,17.72
2018-06-20T02:51:21.448Z,17.68
2018-06-20T02:53:50.354Z,17.74
2018-06-20T02:56:19.268Z,17.67
2018-06-20T02:58:48.192Z,17.64
2018-06-20T03:01:17.720Z,17.69
2018-06-20T03:03:46.668Z,17.63
2018-06-20T03:06:15.562Z,17.60
2018-06-20T03:08:46.177Z,17.49
2018-06-20T03:11:15.950Z,17.45
2018-06-20T03:13:44.945Z,17.49
2018-06-20T03:16:13.960Z,17.63
2018-06-20T03:18:42.851Z,17.68
2018-06-20T03:21:11.817Z,17.59
2018-06-20T03:23:40.723Z,17.60
2018-06-20T03:26:09.641Z,17.43
2018-06-20T03:28:39.456Z,17.56
2018-06-20T03:31:08.455Z,17.57
2018-06-20T03:33:37.684Z,17.63
2018-06-20T03:36:06.647Z,17.51
2018-06-20T03:38:36.040Z,17.47
2018-06-20T03:41:04.957Z,17.37
2018-06-20T03:43:34.192Z,17.34
2018-06-20T03:46:03.102Z,17.40
2018-06-20T03:48:32.077Z,17.28
2018-06-20T03:51:01.076Z,17.29
2018-06-20T03:53:29.983Z,17.17
2018-06-20T03:55:58.916Z,17.13
2018-06-20T03:58:28.088Z,17.10
2018-06-20T04:00:56.969Z,17.19
2018-06-20T04:03:25.853Z,17.28
2018-06-20T04:05:54.771Z,17.26
2018-06-20T04:08:24.113Z,17.32
2018-06-20T04:10:53.948Z,17.30
2018-06-20T04:13:22.897Z,17.24
2018-06-20T04:15:56.769Z,17.26
2018-06-20T04:18:36.015Z,17.27
2018-06-20T04:21:04.979Z,17.34
2018-06-20T04:23:33.856Z,17.27
2018-06-20T04:26:03.285Z,17.22
2018-06-20T04:28:32.180Z,17.25
2018-06-20T04:31:01.405Z,17.29
2018-06-20T04:33:30.996Z,17.32
2018-06-20T04:36:00.072Z,17.31
2018-06-20T04:38:28.974Z,17.25
2018-06-20T04:40:58.593Z,17.30
2018-06-20T04:43:27.541Z,17.42
2018-06-20T04:45:56.684Z,17.32
2018-06-20T04:48:25.995Z,17.28
2018-06-20T04:50:55.004Z,17.34
2018-06-20T04:53:23.927Z,17.40
2018-06-20T04:55:52.847Z,17.44
2018-06-20T04:58:21.774Z,17.42
2018-06-20T05:00:50.784Z,17.34
2018-06-20T05:03:19.678Z,17.35
2018-06-20T05:05:49.340Z,17.43
2018-06-20T05:08:18.240Z,17.39
2018-06-20T05:10:47.864Z,17.34
2018-06-20T05:13:16.843Z,17.34
2018-06-20T05:15:45.747Z,17.32
2018-06-20T05:18:14.693Z,17.31
2018-06-20T05:20:44.621Z,17.39
2018-06-20T05:23:13.523Z,17.37
2018-06-20T05:25:42.892Z,17.32
2018-06-20T05:28:11.958Z,17.36
2018-06-20T05:30:41.139Z,17.30
2018-06-20T05:33:10.059Z,17.38
2018-06-20T05:35:38.953Z,17.47
2018-06-20T05:38:08.583Z,17.47
2018-06-20T05:40:37.499Z,17.44
2018-06-20T05:43:06.396Z,17.41
2018-06-20T05:45:35.996Z,17.43
2018-06-20T05:48:04.920Z,17.51
2018-06-20T05:50:34.868Z,17.58
2018-06-20T05:53:04.338Z,17.48
2018-06-20T05:55:33.937Z,17.52
2018-06-20T05:58:03.201Z,17.63
2018-06-20T06:00:32.135Z,17.50
2018-06-20T06:03:01.081Z,17.49
2018-06-20T06:05:30.037Z,17.54
2018-06-20T06:07:59.600Z,17.58
2018-06-20T06:10:28.525Z,17.45
2018-06-20T06:12:57.408Z,17.49
2018-06-20T06:15:26.681Z,17.57
2018-06-20T06:17:55.782Z,17.56
2018-06-20T06:20:25.006Z,17.53
2018-06-20T06:22:53.893Z,17.52
2018-06-20T06:25:22.807Z,17.49
2018-06-20T06:27:51.719Z,17.56
2018-06-20T06:30:20.685Z,17.64
2018-06-20T06:32:49.699Z,17.64
2018-06-20T06:35:18.599Z,17.62
2018-06-20T06:37:47.732Z,17.67
2018-06-20T06:40:16.586Z,17.63
2018-06-20T06:42:45.506Z,17.67
2018-06-20T06:45:14.556Z,17.67
2018-06-20T06:47:43.442Z,17.67
2018-06-20T06:50:13.138Z,17.61
2018-06-20T06:52:42.143Z,17.68
2018-06-20T06:55:11.098Z,17.71
2018-06-20T06:57:40.000Z,17.75
2018-06-20T07:00:08.924Z,17.64
2018-06-20T07:02:38.384Z,17.72
2018-06-20T07:05:07.313Z,17.74
2018-06-20T07:07:36.914Z,17.66
2018-06-20T07:10:05.812Z,17.68
2018-06-20T07:12:35.619Z,17.70
2018-06-20T07:15:04.668Z,17.74
2018-06-20T07:17:33.704Z,17.82
2018-06-20T07:20:02.704Z,17.84
2018-06-20T07:22:31.627Z,17.79
2018-06-20T07:25:00.536Z,17.86
2018-06-20T07:27:29.780Z,17.79
2018-06-20T07:29:58.868Z,17.77
2018-06-20T07:32:27.832Z,17.80
2018-06-20T07:34:56.771Z,17.86
2018-06-20T07:37:26.008Z,17.84
2018-06-20T07:39:54.911Z,17.78
2018-06-20T07:42:23.823Z,17.86
2018-06-20T07:44:52.746Z,17.89
2018-06-20T07:47:21.650Z,17.88
2018-06-20T07:49:50.568Z,17.80
2018-06-20T07:52:19.514Z,17.87
2018-06-20T07:54:48.476Z,17.91
2018-06-20T07:57:18.353Z,17.96
2018-06-20T07:59:53.220Z,17.96
2018-06-20T08:02:38.797Z,17.96
2018-06-20T08:05:13.083Z,17.96
2018-06-20T08:07:47.289Z,18.00
2018-06-20T08:10:21.557Z,18.10
2018-06-20T08:12:55.753Z,18.21
2018-06-20T08:15:29.933Z,18.20
2018-06-20T08:18:04.109Z,18.06
2018-06-20T08:20:33.939Z,18.05
2018-06-20T08:23:02.911Z,18.03
2018-06-20T08:25:31.907Z,18.12
2018-06-20T08:28:00.880Z,18.22
2018-06-20T08:30:29.813Z,18.24
2018-06-20T08:32:58.753Z,18.28
2018-06-20T08:35:31.731Z,18.37
2018-06-20T08:38:00.704Z,18.36
2018-06-20T08:40:29.759Z,18.33
2018-06-20T08:42:58.676Z,18.36
2018-06-20T08:45:27.584Z,18.34
2018-06-20T09:01:02.558Z,18.22
2018-06-20T09:03:31.516Z,18.32
2018-06-20T09:06:05.823Z,18.47
2018-06-20T09:08:40.170Z,18.53
2018-06-20T09:11:14.338Z,18.53
2018-06-20T09:13:48.525Z,18.62
2018-06-20T09:16:22.808Z,18.69
2018-06-20T09:18:56.932Z,18.72
2018-06-20T09:21:25.946Z,18.74
2018-06-20T09:23:54.884Z,18.73
2018-06-20T09:26:23.868Z,18.68
2018-06-20T09:28:53.080Z,18.71
2018-06-20T09:31:22.896Z,18.68
2018-06-20T09:33:52.700Z,18.72
2018-06-20T09:36:21.672Z,18.81
2018-06-20T09:38:50.656Z,18.95
2018-06-20T09:41:20.329Z,19.01
2018-06-20T09:43:49.267Z,19.03
2018-06-20T09:46:18.367Z,18.87
2018-06-20T09:48:47.303Z,18.94
2018-06-20T09:51:16.220Z,18.96
2018-06-20T09:53:45.196Z,19.00
2018-06-20T09:56:14.136Z,19.06
2018-06-20T09:58:43.052Z,19.09
2018-06-20T10:01:17.993Z,19.11
2018-06-20T10:03:52.297Z,19.06
2018-06-20T11:50:18.473Z,20.16
2018-06-20T11:52:52.850Z,20.13
2018-06-20T11:55:27.915Z,20.30
2018-06-20T11:58:03.307Z,20.39
2018-06-20T12:00:46.614Z,20.51
2018-06-20T12:03:20.763Z,20.56
2018-06-20T12:05:55.309Z,20.57
2018-06-20T12:08:29.501Z,20.56
2018-06-20T12:11:03.737Z,20.53
2018-06-20T12:13:37.972Z,20.70
2018-06-20T12:16:12.329Z,20.82
2018-06-20T12:18:46.623Z,20.75
2018-06-20T12:21:20.783Z,20.77
2018-06-20T12:23:55.192Z,20.81
2018-06-20T12:26:29.543Z,20.91
2018-06-20T12:29:03.849Z,20.94
2018-06-20T12:31:38.071Z,21.08
2018-06-20T12:34:18.246Z,21.26
2018-06-20T12:36:59.333Z,21.30
2018-06-20T12:39:27.637Z,21.28
2018-06-20T12:42:02.017Z,21.21
2018-06-20T12:44:36.297Z,21.22
2018-06-20T12:47:25.605Z,21.31
2018-06-20T12:49:59.464Z,21.43
2018-06-20T12:52:28.569Z,21.59
2018-06-20T12:54:57.665Z,21.59
2018-06-20T12:57:28.213Z,21.60
2018-06-20T12:59:58.098Z,21.63
2018-06-20T13:02:27.280Z,21.71
2018-06-20T13:04:56.244Z,21.76
2018-06-20T13:07:27.328Z,21.75
2018-06-20T13:09:56.592Z,21.78
2018-06-20T13:12:25.628Z,21.80
2018-06-20T13:14:54.625Z,21.75
2018-06-20T13:17:24.318Z,21.74
2018-06-20T13:19:53.229Z,21.74
2018-06-20T13:22:28.063Z,21.80
2018-06-20T13:25:02.582Z,21.90
2018-06-20T13:27:36.700Z,21.93
2018-06-20T13:30:08.584Z,21.93
2018-06-20T13:32:42.937Z,22.03
2018-06-20T13:35:16.936Z,22.20
2018-06-20T13:37:51.424Z,22.24
2018-06-20T13:40:25.618Z,22.24
2018-06-20T13:43:00.023Z,22.37
2018-06-20T13:45:34.175Z,22.45
2018-06-20T13:48:08.949Z,22.49
2018-06-20T13:50:37.880Z,22.55
2018-06-20T13:53:06.829Z,22.65
2018-06-20T13:55:35.744Z,22.72
2018-06-20T13:58:04.805Z,22.74
2018-06-20T14:00:33.999Z,22.73
2018-06-20T14:03:03.003Z,22.67
2018-06-20T14:05:32.221Z,22.74
2018-06-20T14:08:01.120Z,22.82
2018-06-20T14:10:30.185Z,22.90
2018-06-20T14:12:59.215Z,22.91
2018-06-20T14:15:28.487Z,23.04
2018-06-20T14:17:57.470Z,23.09
2018-06-20T14:20:31.845Z,23.16
2018-06-20T14:23:01.242Z,23.24
2018-06-20T14:25:31.120Z,23.28
2018-06-20T14:28:01.128Z,23.42
2018-06-20T14:31:36.406Z,23.40
2018-06-20T14:34:11.345Z,23.34
2018-06-20T14:36:45.609Z,23.36
2018-06-20T14:39:20.100Z,23.36
2018-06-20T14:41:54.301Z,23.45
2018-06-20T14:44:23.570Z,23.58
2018-06-20T14:46:52.699Z,23.70
2018-06-20T14:49:22.826Z,23.63
2018-06-20T14:51:51.837Z,23.66
2018-06-20T14:54:20.775Z,23.75
2018-06-20T14:56:49.762Z,23.85
2018-06-20T14:59:18.689Z,23.81
2018-06-20T15:01:47.576Z,23.71
2018-06-20T15:04:16.568Z,23.67
2018-06-20T15:06:45.741Z,23.67
2018-06-20T15:09:14.709Z,23.59
2018-06-20T15:11:43.759Z,23.67
2018-06-20T15:14:12.713Z,23.71
2018-06-20T15:16:46.975Z,23.68
2018-06-20T15:19:16.453Z,23.66
2018-06-20T15:21:46.187Z,23.73
2018-06-20T15:24:15.145Z,23.64
2018-06-20T15:26:49.307Z,23.54
2018-06-20T15:29:23.473Z,23.64
2018-06-20T15:31:58.809Z,23.57
2018-06-20T15:34:33.124Z,23.55
2018-06-20T15:37:07.403Z,23.67
2018-06-20T15:39:36.473Z,23.60
2018-06-20T15:42:05.545Z,23.55
2018-06-20T15:44:34.519Z,23.56
2018-06-20T15:47:04.297Z,23.56
2018-06-20T15:49:33.609Z,23.55
2018-06-20T15:52:02.863Z,23.59
2018-06-20T15:54:32.745Z,23.56
2018-06-20T15:57:01.659Z,23.59
2018-06-20T15:59:30.626Z,23.61
2018-06-20T16:01:59.523Z,23.62
2018-06-20T16:04:28.468Z,23.61
2018-06-20T16:06:57.789Z,23.59
2018-06-20T16:09:32.131Z,23.57
2018-06-20T16:12:01.396Z,23.60
2018-06-20T16:14:30.368Z,23.60
2018-06-20T16:17:00.271Z,23.67
2018-06-20T16:19:34.367Z,23.77
2018-06-20T16:22:08.505Z,23.72
2018-06-20T16:24:43.023Z,23.75
2018-06-20T16:27:17.127Z,23.80
2018-06-20T16:29:56.345Z,23.77
2018-06-20T16:32:25.344Z,23.72
2018-06-20T16:34:54.412Z,23.60
2018-06-20T16:37:23.392Z,23.57
2018-06-20T16:42:34.796Z,23.47
2018-06-20T16:45:03.813Z,23.43
2018-06-20T16:47:33.652Z,23.44
2018-06-20T16:50:02.725Z,23.42
2018-06-20T16:52:31.614Z,23.41
2018-06-20T16:55:01.098Z,23.47
2018-06-20T16:57:31.132Z,23.49
2018-06-20T17:00:00.103Z,23.56
2018-06-20T17:02:33.595Z,23.57
2018-06-20T17:05:03.260Z,23.52
2018-06-20T17:07:32.750Z,23.47
2018-06-20T17:10:01.693Z,23.40
2018-06-20T17:12:35.997Z,23.40
2018-06-20T17:15:10.975Z,23.43
2018-06-20T17:17:46.027Z,23.40
2018-06-20T17:20:20.306Z,23.36
2018-06-20T17:22:54.565Z,23.38
2018-06-20T17:25:26.057Z,23.35
2018-06-20T17:27:55.153Z,23.31
2018-06-20T17:30:24.135Z,23.23
2018-06-20T17:32:53.243Z,23.09
2018-06-20T17:45:07.363Z,22.94
2018-06-20T17:47:36.316Z,22.91
2018-06-20T17:50:05.672Z,22.88
2018-06-20T17:52:34.667Z,22.90
2018-06-20T17:55:03.629Z,22.93
2018-06-20T17:57:32.569Z,22.90
2018-06-20T18:00:01.486Z,22.90
2018-06-20T18:02:30.364Z,22.89
2018-06-20T18:05:04.752Z,22.84
2018-06-20T18:08:44.471Z,22.85
2018-06-20T18:11:17.165Z,22.83
2018-06-20T18:13:51.779Z,22.79
2018-06-20T18:16:27.011Z,22.76
2018-06-20T18:18:56.400Z,22.69
2018-06-20T18:28:43.564Z,23.88
2018-06-20T18:33:16.856Z,24.26
2018-06-20T18:38:22.757Z,23.57
2018-06-20T18:40:51.716Z,23.13
2018-06-20T18:43:20.684Z,22.84
2018-06-20T18:48:42.470Z,22.46
2018-06-20T18:51:11.500Z,22.33
2018-06-20T18:53:41.446Z,22.23
2018-06-20T18:56:10.442Z,22.11
2018-06-20T18:58:45.879Z,22.13
2018-06-20T19:01:20.170Z,21.92
2018-06-20T19:06:01.040Z,21.84
2018-06-20T19:08:35.431Z,21.62
2018-06-20T19:11:08.181Z,21.47
2018-06-20T19:13:38.191Z,21.44
2018-06-20T19:16:07.161Z,21.35
2018-06-20T19:18:36.282Z,21.21
2018-06-20T19:21:05.229Z,21.12
2018-06-20T19:23:34.171Z,21.08
2018-06-20T19:26:03.123Z,21.03
2018-06-20T19:28:32.085Z,20.96
2018-06-20T19:31:01.019Z,20.96
2018-06-20T19:33:33.682Z,20.93
2018-06-20T19:36:02.709Z,20.94
2018-06-20T19:38:33.716Z,20.79
2018-06-20T19:41:02.700Z,20.72
2018-06-20T19:43:31.611Z,20.85
2018-06-20T19:46:00.561Z,20.73
2018-06-20T19:48:29.523Z,20.68
2018-06-20T19:50:58.570Z,20.66
2018-06-20T19:53:27.535Z,20.58
2018-06-20T19:55:57.540Z,20.54
2018-06-20T19:58:26.524Z,20.48
2018-06-20T20:00:55.512Z,20.42
2018-06-20T20:03:25.532Z,20.50
2018-06-20T20:05:54.680Z,20.44
2018-06-20T20:08:27.496Z,20.36
2018-06-20T20:11:00.340Z,20.26
2018-06-20T20:13:29.388Z,20.29
2018-06-20T20:15:58.319Z,20.26
2018-06-20T20:18:27.350Z,20.19
2018-06-20T20:21:06.686Z,20.13
2018-06-20T20:23:35.699Z,20.17
2018-06-20T20:26:04.662Z,20.10
2018-06-20T20:28:33.601Z,20.03
2018-06-20T20:31:02.590Z,20.05
2018-06-20T20:33:31.637Z,20.06
2018-06-20T20:36:06.565Z,20.06
2018-06-20T20:38:36.492Z,19.95
2018-06-20T20:41:11.140Z,19.97
2018-06-20T20:43:41.100Z,19.89
2018-06-20T20:46:10.092Z,19.99
2018-06-20T20:48:39.096Z,20.02
2018-06-20T20:51:10.299Z,19.97
2018-06-20T20:53:39.492Z,19.98
2018-06-20T20:56:08.477Z,19.95
2018-06-20T20:58:37.585Z,19.89
2018-06-20T21:01:07.546Z,19.82
2018-06-20T21:03:36.829Z,19.81
2018-06-20T21:06:05.897Z,19.83
2018-06-20T21:08:35.854Z,19.73
2018-06-20T21:11:06.825Z,19.62
2018-06-20T21:13:39.221Z,19.57
2018-06-20T21:16:08.130Z,19.59
2018-06-20T21:18:37.036Z,19.55
2018-06-20T21:21:06.078Z,19.48
2018-06-20T21:23:35.044Z,19.43
2018-06-20T21:26:04.084Z,19.44
2018-06-20T21:28:33.031Z,19.39
2018-06-20T21:31:02.005Z,19.33
2018-06-20T21:33:36.515Z,19.31
2018-06-20T21:36:05.500Z,19.26
2018-06-20T21:38:34.592Z,19.28
2018-06-20T21:41:03.553Z,19.29
2018-06-20T21:43:32.499Z,19.25
2018-06-20T21:46:01.451Z,19.21
2018-06-20T21:48:30.431Z,19.17
2018-06-20T21:51:04.975Z,19.15
2018-06-20T21:53:33.974Z,19.14
2018-06-20T21:56:02.946Z,19.07
2018-06-20T21:58:31.848Z,19.08
2018-06-20T22:01:00.824Z,19.06
2018-06-20T22:03:29.732Z,19.03
2018-06-20T22:05:59.776Z,18.98
2018-06-20T22:08:28.740Z,19.03
2018-06-20T22:10:57.718Z,18.99
2018-06-20T22:13:27.449Z,18.99
2018-06-20T22:15:56.454Z,19.10
2018-06-20T22:18:25.372Z,19.15
2018-06-20T22:20:54.315Z,19.23
2018-06-20T22:23:23.263Z,19.33
2018-06-20T22:25:52.155Z,19.31
2018-06-20T22:28:21.105Z,19.42
2018-06-20T22:30:50.110Z,19.41
2018-06-20T22:33:19.060Z,19.40
2018-06-20T22:35:48.027Z,19.46
2018-06-20T22:38:17.051Z,19.42
2018-06-20T22:40:46.041Z,19.39
2018-06-20T22:43:14.995Z,19.40
2018-06-20T22:45:43.936Z,19.34
2018-06-20T22:48:12.935Z,19.41
2018-06-20T22:50:41.902Z,19.44
2018-06-20T22:53:10.815Z,19.47
2018-06-20T22:55:39.798Z,19.54
2018-06-20T22:58:08.745Z,19.57
2018-06-20T23:00:37.779Z,19.43
2018-06-20T23:03:06.756Z,19.38
2018-06-20T23:05:35.695Z,19.41
2018-06-20T23:08:04.725Z,19.45
2018-06-20T23:10:33.730Z,19.44
2018-06-20T23:13:02.691Z,19.43
2018-06-20T23:15:31.669Z,19.39
2018-06-20T23:18:00.715Z,19.36
2018-06-20T23:20:29.721Z,19.39
2018-06-20T23:22:58.729Z,19.35
2018-06-20T23:25:27.686Z,19.32
2018-06-20T23:27:56.743Z,19.31
2018-06-20T23:30:25.732Z,19.31
2018-06-20T23:33:00.127Z,19.39
2018-06-20T23:35:29.110Z,19.29
2018-06-20T23:37:58.104Z,19.30
2018-06-20T23:40:27.103Z,19.28
2018-06-20T23:42:56.132Z,19.22
2018-06-20T23:45:25.083Z,19.19
2018-06-20T23:47:54.095Z,19.24
2018-06-20T23:50:23.114Z,19.25
2018-06-20T23:52:52.059Z,19.15
2018-06-20T23:55:21.078Z,19.02
2018-06-20T23:57:50.034Z,18.99
